createdAt,value
2017-11-18T00:01:04.323Z,20.44
2017-11-18T00:03:30.149Z,20.36
2017-11-18T00:05:55.936Z,20.38
2017-11-18T00:08:21.754Z,20.47
2017-11-18T00:10:47.580Z,20.44
2017-11-18T00:13:13.366Z,20.50
2017-11-18T00:15:39.153Z,20.43
2017-11-18T00:18:04.946Z,20.46
2017-11-18T00:20:30.737Z,20.52
2017-11-18T00:22:56.525Z,20.45
2017-11-18T00:25:22.309Z,20.46
2017-11-18T00:27:48.154Z,20.44
2017-11-18T00:30:13.933Z,20.45
2017-11-18T00:32:39.709Z,20.43
2017-11-18T00:35:05.489Z,20.43
2017-11-18T00:37:31.288Z,20.45
2017-11-18T00:39:57.091Z,20.46
2017-11-18T00:42:22.883Z,20.47
2017-11-18T00:44:48.707Z,20.45
2017-11-18T00:47:14.493Z,20.42
2017-11-18T00:49:40.274Z,20.41
2017-11-18T00:52:06.093Z,20.44
2017-11-18T00:54:31.902Z,20.49
2017-11-18T00:56:57.681Z,20.50
2017-11-18T00:59:23.461Z,20.45
2017-11-18T01:01:49.237Z,20.43
2017-11-18T01:04:15.107Z,20.42
2017-11-18T01:06:40.901Z,20.42
2017-11-18T01:09:06.690Z,20.42
2017-11-18T01:11:32.516Z,20.42
2017-11-18T01:13:58.302Z,20.43
2017-11-18T01:16:24.132Z,20.47
2017-11-18T01:18:49.933Z,20.45
2017-11-18T01:21:15.729Z,20.42
2017-11-18T01:23:41.517Z,20.41
2017-11-18T01:26:07.306Z,20.45
2017-11-18T01:28:33.159Z,20.45
2017-11-18T01:30:58.950Z,20.44
2017-11-18T01:33:24.732Z,20.42
2017-11-18T01:35:50.726Z,20.42
2017-11-18T01:38:16.517Z,20.45
2017-11-18T01:40:42.308Z,20.32
2017-11-18T01:43:08.125Z,20.43
2017-11-18T01:45:33.907Z,20.46
2017-11-18T01:47:59.689Z,20.38
2017-11-18T01:50:25.573Z,20.32
2017-11-18T01:52:51.351Z,20.39
2017-11-18T01:55:17.138Z,20.34
2017-11-18T01:57:42.930Z,20.39
2017-11-18T02:00:08.706Z,20.30
2017-11-18T02:02:42.461Z,20.35
2017-11-18T02:05:08.352Z,20.31
2017-11-18T02:07:34.189Z,20.29
2017-11-18T02:10:00.042Z,20.31
2017-11-18T02:12:25.828Z,20.30
2017-11-18T02:14:51.618Z,20.27
2017-11-18T02:17:17.418Z,20.31
2017-11-18T02:19:45.406Z,20.34
2017-11-18T02:22:11.191Z,20.31
2017-11-18T02:24:36.981Z,20.30
2017-11-18T02:27:02.802Z,20.34
2017-11-18T02:29:28.581Z,20.34
2017-11-18T02:31:54.358Z,20.32
2017-11-18T02:34:20.162Z,20.37
2017-11-18T02:36:45.954Z,20.38
2017-11-18T02:39:11.742Z,20.46
2017-11-18T02:41:37.528Z,20.41
2017-11-18T02:44:03.329Z,20.35
2017-11-18T02:46:29.113Z,20.31
2017-11-18T02:48:54.909Z,20.34
2017-11-18T02:51:20.739Z,20.39
2017-11-18T02:53:46.568Z,20.37
2017-11-18T02:56:12.353Z,20.36
2017-11-18T02:58:38.140Z,20.41
2017-11-18T03:01:03.935Z,20.45
2017-11-18T03:03:29.713Z,20.37
2017-11-18T03:05:55.492Z,20.38
2017-11-18T03:08:21.328Z,20.42
2017-11-18T03:10:47.149Z,20.47
2017-11-18T03:13:12.936Z,20.38
2017-11-18T03:15:38.729Z,20.35
2017-11-18T03:18:04.511Z,20.39
2017-11-18T03:20:30.321Z,20.47
2017-11-18T03:22:56.233Z,20.43
2017-11-18T03:25:22.037Z,20.46
2017-11-18T03:27:47.817Z,20.39
2017-11-18T03:30:13.642Z,20.38
2017-11-18T03:32:39.421Z,20.37
2017-11-18T03:35:05.207Z,20.36
2017-11-18T03:37:31.002Z,20.38
2017-11-18T03:39:56.777Z,20.43
2017-11-18T03:42:22.574Z,20.40
2017-11-18T03:44:48.351Z,20.37
2017-11-18T03:47:14.165Z,20.37
2017-11-18T03:49:40.120Z,20.42
2017-11-18T03:52:05.918Z,20.40
2017-11-18T03:54:31.720Z,20.38
2017-11-18T03:56:57.545Z,20.34
2017-11-18T03:59:23.321Z,20.36
2017-11-18T04:01:49.112Z,20.37
2017-11-18T04:04:14.893Z,20.36
2017-11-18T04:06:40.681Z,20.39
2017-11-18T04:09:06.462Z,20.37
2017-11-18T04:11:32.253Z,20.30
2017-11-18T04:13:58.037Z,20.37
2017-11-18T04:16:23.869Z,20.30
2017-11-18T04:18:49.650Z,20.30
2017-11-18T04:21:15.433Z,20.36
2017-11-18T04:23:41.222Z,20.42
2017-11-18T04:26:07.038Z,20.34
2017-11-18T04:28:32.835Z,20.32
2017-11-18T04:30:58.621Z,20.30
2017-11-18T04:33:24.417Z,20.27
2017-11-18T04:35:50.205Z,20.37
2017-11-18T04:38:15.980Z,20.29
2017-11-18T04:40:41.761Z,20.39
2017-11-18T04:43:07.555Z,20.30
2017-11-18T04:45:33.370Z,20.43
2017-11-18T04:47:59.189Z,20.33
2017-11-18T04:50:25.008Z,20.32
2017-11-18T04:52:50.834Z,20.34
2017-11-18T04:55:16.741Z,20.30
2017-11-18T04:57:42.522Z,20.32
2017-11-18T05:00:08.361Z,20.36
2017-11-18T05:02:34.157Z,20.39
2017-11-18T05:04:59.947Z,20.40
2017-11-18T05:07:25.739Z,20.42
2017-11-18T05:09:51.522Z,20.35
2017-11-18T05:12:17.305Z,20.41
2017-11-18T05:14:43.097Z,20.38
2017-11-18T05:17:08.942Z,20.41
2017-11-18T05:19:34.733Z,20.45
2017-11-18T05:22:00.532Z,20.45
2017-11-18T05:24:26.318Z,20.41
2017-11-18T05:26:52.137Z,20.36
2017-11-18T05:29:18.145Z,20.36
2017-11-18T05:31:43.930Z,20.40
2017-11-18T05:34:09.757Z,20.37
2017-11-18T05:36:35.533Z,20.40
2017-11-18T05:39:01.312Z,20.32
2017-11-18T05:41:27.087Z,20.34
2017-11-18T05:43:52.870Z,20.36
2017-11-18T05:46:18.646Z,20.38
2017-11-18T05:48:44.429Z,20.38
2017-11-18T05:51:10.205Z,20.35
2017-11-18T05:53:35.992Z,20.34
2017-11-18T05:56:01.773Z,20.27
2017-11-18T05:58:27.578Z,20.34
2017-11-18T06:00:53.361Z,20.40
2017-11-18T06:03:19.207Z,20.42
2017-11-18T06:05:45.993Z,20.34
2017-11-18T06:08:11.822Z,20.41
2017-11-18T06:10:37.604Z,20.33
2017-11-18T06:13:03.385Z,20.42
2017-11-18T06:15:29.168Z,20.48
2017-11-18T06:17:54.957Z,20.41
2017-11-18T06:20:20.740Z,20.43
2017-11-18T06:22:46.529Z,20.47
2017-11-18T06:25:12.321Z,20.45
2017-11-18T06:27:38.100Z,20.45
2017-11-18T06:30:03.878Z,20.43
2017-11-18T06:32:29.834Z,20.48
2017-11-18T06:34:55.618Z,20.41
2017-11-18T06:37:21.401Z,20.47
2017-11-18T06:39:47.230Z,20.47
2017-11-18T06:42:13.014Z,20.47
2017-11-18T06:44:38.793Z,20.46
2017-11-18T06:47:04.610Z,20.46
2017-11-18T06:49:30.407Z,20.48
2017-11-18T06:51:56.290Z,20.44
2017-11-18T06:54:22.078Z,20.42
2017-11-18T06:56:47.882Z,20.44
2017-11-18T06:59:13.667Z,20.38
2017-11-18T07:01:39.469Z,20.42
2017-11-18T07:04:05.280Z,20.42
2017-11-18T07:06:31.073Z,20.38
2017-11-18T07:08:56.867Z,20.45
2017-11-18T07:11:22.694Z,20.48
2017-11-18T07:13:48.473Z,20.47
2017-11-18T07:16:14.262Z,20.36
2017-11-18T07:18:40.047Z,20.47
2017-11-18T07:21:05.833Z,20.49
2017-11-18T07:23:31.622Z,20.45
2017-11-18T07:25:57.561Z,20.28
2017-11-18T07:28:23.355Z,20.40
2017-11-18T07:30:49.141Z,20.46
2017-11-18T07:33:14.927Z,20.39
2017-11-18T07:35:40.717Z,20.45
2017-11-18T07:38:06.492Z,20.40
2017-11-18T07:40:32.385Z,20.47
2017-11-18T07:42:58.206Z,20.45
2017-11-18T07:45:23.997Z,20.40
2017-11-18T07:47:49.774Z,20.45
2017-11-18T07:50:15.554Z,20.39
2017-11-18T07:52:41.477Z,20.37
2017-11-18T07:55:07.253Z,20.45
2017-11-18T07:57:33.038Z,20.48
2017-11-18T07:59:58.861Z,20.42
2017-11-18T08:02:24.653Z,20.49
2017-11-18T08:04:50.609Z,20.39
2017-11-18T08:07:16.393Z,20.36
2017-11-18T08:09:42.213Z,20.49
2017-11-18T08:12:07.992Z,20.49
2017-11-18T08:14:33.777Z,20.50
2017-11-18T08:16:59.579Z,20.47
2017-11-18T08:19:25.353Z,20.44
2017-11-18T08:21:51.145Z,20.45
2017-11-18T08:24:16.937Z,20.48
2017-11-18T08:26:42.898Z,20.49
2017-11-18T08:29:08.754Z,20.48
2017-11-18T08:31:34.611Z,20.49
2017-11-18T08:34:00.441Z,20.41
2017-11-18T08:36:32.277Z,20.49
2017-11-18T08:38:58.094Z,20.51
2017-11-18T08:41:23.872Z,20.47
2017-11-18T08:43:49.695Z,20.46
2017-11-18T08:46:15.480Z,20.40
2017-11-18T08:48:41.313Z,20.46
2017-11-18T08:51:08.122Z,20.47
2017-11-18T08:53:33.981Z,20.42
2017-11-18T08:55:59.797Z,20.54
2017-11-18T08:58:25.573Z,20.38
2017-11-18T09:00:51.402Z,20.43
2017-11-18T09:03:17.254Z,20.43
2017-11-18T09:05:43.106Z,20.47
2017-11-18T09:08:09.065Z,20.54
2017-11-18T09:10:34.867Z,20.51
2017-11-18T09:13:00.654Z,20.52
2017-11-18T09:15:26.433Z,20.56
2017-11-18T09:17:52.217Z,20.58
2017-11-18T09:20:18.052Z,20.56
2017-11-18T09:22:43.875Z,20.53
2017-11-18T09:25:09.657Z,20.58
2017-11-18T09:27:35.478Z,20.61
2017-11-18T09:30:01.293Z,20.59
2017-11-18T09:32:27.080Z,20.68
2017-11-18T09:34:52.861Z,20.65
2017-11-18T09:37:18.645Z,20.66
2017-11-18T09:39:44.426Z,20.58
2017-11-18T09:42:10.217Z,20.64
2017-11-18T09:44:36.042Z,20.59
2017-11-18T09:47:01.829Z,20.59
2017-11-18T09:49:27.623Z,20.66
2017-11-18T09:51:53.410Z,20.60
2017-11-18T09:54:19.200Z,20.57
2017-11-18T09:56:44.979Z,20.64
2017-11-18T09:59:10.820Z,20.62
2017-11-18T10:01:36.604Z,20.67
2017-11-18T10:04:02.514Z,20.58
2017-11-18T10:06:28.337Z,20.56
2017-11-18T10:08:54.125Z,20.58
2017-11-18T10:11:20.002Z,20.58
2017-11-18T10:13:45.793Z,20.61
2017-11-18T10:16:11.577Z,20.57
2017-11-18T10:18:37.370Z,20.66
2017-11-18T10:21:03.186Z,20.62
2017-11-18T10:23:28.985Z,20.58
2017-11-18T10:25:54.992Z,20.58
2017-11-18T10:28:20.952Z,20.54
2017-11-18T10:30:46.950Z,20.65
2017-11-18T10:33:12.789Z,20.65
2017-11-18T10:35:38.681Z,20.61
2017-11-18T10:38:04.619Z,20.60
2017-11-18T10:40:30.426Z,20.62
2017-11-18T10:42:56.348Z,20.62
2017-11-18T10:45:22.175Z,20.63
2017-11-18T10:47:47.958Z,20.68
2017-11-18T10:50:13.782Z,20.61
2017-11-18T10:52:39.565Z,20.55
2017-11-18T10:55:05.357Z,20.56
2017-11-18T10:57:31.263Z,20.59
2017-11-18T10:59:57.046Z,20.65
2017-11-18T11:02:22.866Z,20.56
2017-11-18T11:04:48.680Z,20.57
2017-11-18T11:07:14.462Z,20.49
2017-11-18T11:09:40.243Z,20.55
2017-11-18T11:12:06.030Z,20.66
2017-11-18T11:14:31.933Z,20.72
2017-11-18T11:16:57.729Z,20.77
2017-11-18T11:19:23.554Z,20.74
2017-11-18T11:21:49.464Z,20.64
2017-11-18T11:24:15.293Z,20.67
2017-11-18T11:26:41.180Z,20.65
2017-11-18T11:29:06.961Z,20.69
2017-11-18T11:31:32.957Z,20.69
2017-11-18T11:33:58.740Z,20.77
2017-11-18T11:36:24.742Z,20.66
2017-11-18T11:38:50.545Z,20.78
2017-11-18T11:41:17.305Z,20.69
2017-11-18T11:43:43.166Z,20.67
2017-11-18T11:46:08.977Z,20.70
2017-11-18T11:48:34.965Z,20.61
2017-11-18T11:51:00.961Z,20.69
2017-11-18T11:53:26.925Z,20.66
2017-11-18T11:55:52.733Z,20.64
2017-11-18T11:58:18.560Z,20.69
2017-11-18T12:00:44.461Z,20.71
2017-11-18T12:03:10.293Z,20.66
2017-11-18T12:05:36.092Z,20.73
2017-11-18T12:08:01.890Z,20.64
2017-11-18T12:10:27.690Z,20.62
2017-11-18T12:12:53.485Z,20.69
2017-11-18T12:15:19.282Z,20.60
2017-11-18T12:17:45.073Z,20.61
2017-11-18T12:20:11.037Z,20.64
2017-11-18T12:22:36.888Z,20.61
2017-11-18T12:25:02.681Z,20.64
2017-11-18T12:27:28.461Z,20.59
2017-11-18T12:29:54.237Z,20.63
2017-11-18T12:32:20.014Z,20.64
2017-11-18T12:34:45.793Z,20.65
2017-11-18T12:37:11.576Z,20.74
2017-11-18T12:39:37.352Z,20.79
2017-11-18T12:42:03.916Z,20.85
2017-11-18T12:44:29.706Z,20.82
2017-11-18T12:46:55.494Z,20.86
2017-11-18T12:49:21.498Z,20.77
2017-11-18T12:51:47.393Z,20.84
2017-11-18T12:54:13.166Z,20.88
2017-11-18T13:13:12.458Z,20.63
2017-11-18T13:15:38.235Z,20.76
2017-11-18T13:18:04.025Z,20.80
2017-11-18T13:20:29.841Z,20.89
2017-11-18T13:22:55.781Z,20.84
2017-11-18T13:25:21.620Z,20.96
2017-11-18T13:27:47.537Z,20.86
2017-11-18T13:30:13.324Z,20.79
2017-11-18T13:32:39.176Z,20.85
2017-11-18T13:35:04.958Z,20.82
2017-11-18T13:37:30.781Z,20.81
2017-11-18T13:39:56.565Z,20.86
2017-11-18T13:42:22.352Z,20.74
2017-11-18T13:44:48.137Z,20.74
2017-11-18T13:47:13.922Z,20.80
2017-11-18T13:49:39.701Z,20.82
2017-11-18T13:52:05.617Z,20.84
2017-11-18T13:54:31.436Z,20.71
2017-11-18T13:56:57.218Z,20.72
2017-11-18T13:59:24.337Z,20.74
2017-11-18T14:01:50.121Z,20.75
2017-11-18T14:04:15.899Z,20.73
2017-11-18T14:06:41.729Z,20.72
2017-11-18T14:09:07.502Z,20.72
2017-11-18T14:11:33.281Z,20.70
2017-11-18T14:13:59.054Z,20.73
2017-11-18T14:16:24.877Z,20.76
2017-11-18T14:18:50.760Z,20.77
2017-11-18T14:21:16.624Z,20.72
2017-11-18T14:23:42.605Z,20.67
2017-11-18T14:26:08.554Z,20.61
2017-11-18T14:28:34.329Z,20.60
2017-11-18T14:31:00.292Z,20.61
2017-11-18T14:33:26.130Z,20.65
2017-11-18T14:35:51.905Z,20.65
2017-11-18T14:38:17.838Z,20.76
2017-11-18T14:40:43.613Z,20.79
2017-11-18T14:43:09.572Z,20.92
2017-11-18T14:45:35.386Z,20.81
2017-11-18T14:48:01.163Z,20.73
2017-11-18T14:50:26.939Z,20.75
2017-11-18T14:52:52.712Z,20.81
2017-11-18T14:55:18.514Z,20.81
2017-11-18T14:57:44.310Z,20.86
2017-11-18T15:00:10.111Z,20.80
2017-11-18T15:02:36.066Z,20.81
2017-11-18T15:05:01.870Z,20.80
2017-11-18T15:07:27.781Z,20.74
2017-11-18T15:09:53.574Z,20.88
2017-11-18T15:12:19.473Z,20.89
2017-11-18T15:14:46.149Z,20.89
2017-11-18T15:17:15.961Z,20.86
2017-11-18T15:19:47.980Z,20.85
2017-11-18T15:22:13.850Z,20.84
2017-11-18T15:24:45.892Z,20.93
2017-11-18T15:27:17.885Z,20.87
2017-11-18T15:29:43.678Z,20.81
2017-11-18T15:32:13.473Z,20.85
2017-11-18T15:34:43.311Z,20.87
2017-11-18T15:37:13.310Z,20.85
2017-11-18T15:39:39.196Z,20.88
2017-11-18T15:42:05.050Z,20.88
2017-11-18T15:44:31.769Z,20.83
2017-11-18T15:47:02.405Z,20.81
2017-11-18T15:49:34.275Z,20.81
2017-11-18T15:52:01.048Z,20.91
2017-11-18T15:54:29.965Z,20.86
2017-11-18T15:59:57.910Z,20.81
2017-11-18T16:05:22.922Z,20.82
2017-11-18T16:07:48.837Z,20.84
2017-11-18T16:10:14.625Z,20.88
2017-11-18T16:12:40.410Z,20.84
2017-11-18T16:15:06.196Z,20.85
2017-11-18T16:17:32.118Z,20.83
2017-11-18T16:19:57.904Z,20.86
2017-11-18T16:22:23.772Z,20.87
2017-11-18T16:24:49.701Z,20.88
2017-11-18T16:27:15.485Z,20.82
2017-11-18T16:29:41.286Z,20.73
2017-11-18T16:32:07.208Z,20.79
2017-11-18T16:34:33.011Z,20.77
2017-11-18T16:36:58.939Z,20.73
2017-11-18T16:39:24.734Z,20.69
2017-11-18T16:41:50.546Z,20.77
2017-11-18T16:44:16.342Z,20.87
2017-11-18T16:46:42.181Z,20.89
2017-11-18T16:49:07.996Z,20.92
2017-11-18T16:51:33.985Z,20.90
2017-11-18T16:53:59.914Z,20.84
2017-11-18T16:56:25.810Z,20.83
2017-11-18T16:58:51.600Z,20.48
2017-11-18T17:01:17.385Z,20.83
2017-11-18T17:03:43.165Z,20.93
2017-11-18T17:06:08.957Z,20.96
2017-11-18T17:08:34.820Z,20.80
2017-11-18T17:11:00.612Z,20.77
2017-11-18T17:13:26.410Z,20.90
2017-11-18T17:15:52.222Z,20.88
2017-11-18T17:18:18.067Z,20.83
2017-11-18T17:20:43.858Z,20.73
2017-11-18T17:23:09.694Z,20.82
2017-11-18T17:25:35.490Z,20.80
2017-11-18T17:28:01.394Z,20.80
2017-11-18T17:30:27.190Z,20.75
2017-11-18T17:32:53.059Z,20.72
2017-11-18T17:35:18.851Z,20.71
2017-11-18T17:37:44.738Z,20.72
2017-11-18T17:40:10.541Z,20.67
2017-11-18T17:42:36.455Z,20.68
2017-11-18T17:45:02.245Z,20.68
2017-11-18T17:47:28.045Z,20.58
2017-11-18T17:49:53.922Z,20.68
2017-11-18T17:52:19.700Z,20.69
2017-11-18T17:54:45.551Z,20.60
2017-11-18T17:57:11.328Z,20.77
2017-11-18T17:59:37.141Z,20.83
2017-11-18T18:02:02.969Z,20.81
2017-11-18T18:04:28.789Z,20.93
2017-11-18T18:06:54.601Z,20.82
2017-11-18T18:09:20.489Z,20.78
2017-11-18T18:11:46.277Z,20.81
2017-11-18T18:14:12.174Z,20.85
2017-11-18T18:16:38.309Z,20.89
2017-11-18T18:19:04.088Z,20.89
2017-11-18T18:21:29.867Z,20.82
2017-11-18T18:23:55.824Z,20.74
2017-11-18T18:26:21.666Z,20.84
2017-11-18T18:28:47.442Z,20.85
2017-11-18T18:31:13.258Z,20.85
2017-11-18T18:33:39.109Z,19.87
2017-11-18T18:36:04.891Z,20.34
2017-11-18T18:38:30.706Z,20.42
2017-11-18T18:40:56.525Z,20.62
2017-11-18T18:43:24.164Z,20.64
2017-11-18T18:45:50.027Z,20.57
2017-11-18T18:48:15.849Z,20.15
2017-11-18T18:50:41.634Z,20.34
2017-11-18T18:53:07.517Z,20.24
2017-11-18T18:55:33.293Z,20.44
2017-11-18T18:57:59.067Z,20.58
2017-11-18T19:00:24.865Z,20.60
2017-11-18T19:02:50.649Z,20.39
2017-11-18T19:05:16.445Z,20.42
2017-11-18T19:07:42.218Z,20.61
2017-11-18T19:10:08.032Z,20.65
2017-11-18T19:12:33.858Z,20.67
2017-11-18T19:14:59.634Z,20.62
2017-11-18T19:17:25.601Z,20.62
2017-11-18T19:19:51.385Z,20.61
2017-11-18T19:22:17.168Z,20.56
2017-11-18T19:24:42.946Z,20.64
2017-11-18T19:27:08.735Z,20.79
2017-11-18T19:29:34.513Z,20.83
2017-11-18T19:32:00.327Z,20.75
2017-11-18T19:34:26.113Z,20.73
2017-11-18T19:36:51.893Z,20.66
2017-11-18T19:39:17.713Z,20.69
2017-11-18T19:41:43.494Z,20.81
2017-11-18T19:44:09.458Z,20.83
2017-11-18T19:46:35.342Z,20.83
2017-11-18T19:49:01.114Z,20.79
2017-11-18T19:51:27.080Z,20.78
2017-11-18T19:53:59.717Z,20.69
2017-11-18T19:56:25.500Z,20.78
2017-11-18T19:58:51.303Z,20.82
2017-11-18T20:01:17.513Z,20.82
2017-11-18T20:03:43.323Z,20.79
2017-11-18T20:06:09.287Z,20.71
2017-11-18T20:08:35.094Z,20.80
2017-11-18T20:11:00.881Z,20.83
2017-11-18T20:13:26.686Z,20.86
2017-11-18T20:15:52.489Z,20.83
2017-11-18T20:18:18.308Z,20.74
2017-11-18T20:20:44.095Z,20.73
2017-11-18T20:23:10.007Z,20.85
2017-11-18T20:25:35.787Z,20.81
2017-11-18T20:28:01.582Z,20.83
2017-11-18T20:30:27.630Z,20.72
2017-11-18T20:32:53.503Z,20.74
2017-11-18T20:35:19.310Z,20.70
2017-11-18T20:37:45.127Z,20.67
2017-11-18T20:40:11.099Z,20.78
2017-11-18T20:42:36.875Z,20.79
2017-11-18T20:45:02.667Z,20.76
2017-11-18T20:47:29.209Z,20.71
2017-11-18T20:49:54.990Z,20.68
2017-11-18T20:52:20.982Z,20.71
2017-11-18T20:54:46.825Z,20.75
2017-11-18T20:57:12.713Z,20.63
2017-11-18T20:59:38.648Z,20.62
2017-11-18T21:02:04.429Z,20.59
2017-11-18T21:04:30.378Z,20.56
2017-11-18T21:06:56.231Z,20.57
2017-11-18T21:09:22.013Z,20.69
2017-11-18T21:11:47.856Z,20.77
2017-11-18T21:14:13.760Z,20.76
2017-11-18T21:16:39.533Z,20.76
2017-11-18T21:19:05.358Z,20.69
2017-11-18T21:21:31.138Z,20.68
2017-11-18T21:23:56.929Z,20.74
2017-11-18T21:26:22.709Z,20.81
2017-11-18T21:28:48.674Z,20.86
2017-11-18T21:31:14.453Z,20.77
2017-11-18T21:33:40.273Z,20.72
2017-11-18T21:36:06.137Z,20.71
2017-11-18T21:38:32.057Z,20.73
2017-11-18T21:40:57.861Z,20.84
2017-11-18T21:43:23.811Z,20.86
2017-11-18T21:45:49.724Z,20.82
2017-11-18T21:48:15.530Z,20.76
2017-11-18T21:50:41.498Z,20.69
2017-11-18T21:53:07.277Z,20.71
2017-11-18T21:55:33.255Z,20.74
2017-11-18T21:57:59.030Z,20.74
2017-11-18T22:00:24.806Z,20.82
2017-11-18T22:02:50.585Z,20.77
2017-11-18T22:05:16.483Z,20.74
2017-11-18T22:07:42.256Z,20.75
2017-11-18T22:10:08.038Z,20.76
2017-11-18T22:12:33.856Z,20.76
2017-11-18T22:14:59.757Z,20.74
2017-11-18T22:17:25.579Z,20.69
2017-11-18T22:19:51.357Z,20.64
2017-11-18T22:22:17.141Z,20.65
2017-11-18T22:24:43.086Z,20.72
2017-11-18T22:27:09.061Z,20.71
2017-11-18T22:29:34.852Z,20.76
2017-11-18T22:32:00.691Z,20.73
2017-11-18T22:34:26.470Z,20.68
2017-11-18T22:36:52.254Z,20.71
2017-11-18T22:39:18.037Z,20.65
2017-11-18T22:41:43.817Z,20.66
2017-11-18T22:44:09.629Z,20.72
2017-11-18T22:46:35.419Z,20.68
2017-11-18T22:49:01.198Z,20.75
2017-11-18T22:51:27.018Z,20.70
2017-11-18T22:53:52.809Z,20.65
2017-11-18T22:56:18.594Z,20.69
2017-11-18T22:58:44.377Z,20.64
2017-11-18T23:01:10.163Z,20.71
2017-11-18T23:03:35.954Z,20.74
2017-11-18T23:06:01.783Z,20.62
2017-11-18T23:08:27.565Z,20.64
2017-11-18T23:10:53.353Z,20.59
2017-11-18T23:13:19.149Z,20.56
2017-11-18T23:15:44.939Z,20.61
2017-11-18T23:18:10.739Z,20.62
2017-11-18T23:20:36.531Z,20.72
2017-11-18T23:23:02.321Z,20.77
2017-11-18T23:25:28.128Z,20.84
2017-11-18T23:27:53.922Z,20.86
2017-11-18T23:30:19.707Z,20.68
2017-11-18T23:32:45.497Z,20.72
2017-11-18T23:35:11.277Z,20.78
2017-11-18T23:37:37.078Z,20.80
2017-11-18T23:40:02.863Z,20.81
2017-11-18T23:42:28.662Z,20.81
2017-11-18T23:44:54.445Z,20.85
2017-11-18T23:47:20.253Z,20.74
2017-11-18T23:49:46.049Z,20.78
2017-11-18T23:52:11.846Z,20.80
2017-11-18T23:54:37.635Z,20.84
2017-11-18T23:57:03.444Z,20.89
2017-11-18T23:59:29.256Z,20.82
